Current KBOS METAR: KBOS 120554Z 20007KT 10SM FEW015 FEW250 23/21 A2995 RMK AO2 SLP141 T02330211 10272 20233 50004 $

Landing Runways: 22L

Departing Runways: 22L, 22R